Aérodrome :
LOGIN :

S'inscrire | Disclaimer

   EN    FR    IT 

 










Légende :    VFR   VFR Marginal   IFR   IFR Intensif   IFR Très Intensif
Visi : 
Plafond : 
>= 8 km
>= 3000ft
5 à 8 km
1000 à 3000 ft
1500m à 5 km
500 à 1000 ft
800 à 1500m
200 à 500 ft
< 800m
< 200 ft
Symboles :   Orages  Brouillard  Fortes neiges  Fortes précipitations  Vent > 20 kt
SIGMETs :   Divers  Orages  Givrage  Turbulence  Onde Orograph.  Cendres Volcan.







- Altitude de l'aérodrome : 1791 ft
- Code IATA : AOT


LIMW - Aosta

DERNIER METAR :
  • 211920Z AUTO 31010KT 260V350 9999 NCD 28/10 Q1014

METARs EXPIRÉS :
  • 211850Z AUTO 30008KT 250V340 9999 NCD 28/10 Q1014
  • 211820Z AUTO 30006KT 260V330 9999 NCD 29/11 Q1014
  • 211750Z AUTO 32006KT 280V350 9999 NCD 30/11 Q1014
  • 211720Z AUTO VRB04KT 9999 BKN100/// 30/12 Q1014
  • 211650Z AUTO 06005KT 360V120 9999 SCT100/// 29/18 Q1013

TAF TAF LIMW
Valide du 21 à 18h jusqu'au 22 à 03h UTC


211700Z 2118/2203 10010KT CAVOK
BECMG 2119/2121 VRB05KT
Pas de NOTAMs connus pour ce terrain.



MET'MAP, la Météo Aéronautique d'un coup d'oeil ! - Copyright ORBIFLY Décembre 2007 - Disclaimer

ORBIFLY MET'MAP TEAM :

Programmation & Développement : Alexandra Zaïnal
Conception & Développement : Baudouin d'Aumeries
Co-Programmation & Développement : Marc-Olivier Méhu
Soutien technique & logistique : Manuel Goepfert

Contact : metmap@orbifly.com




SOURCES & CREDITS :

   NOAA